Time;durP1;ratioP1;P1;durP2;ratioP2;P2;SDS_P1;SDS_P2;PMS_P1;PMS_P2;Temp;Humidity;BMP_temperature;BMP_pressure;BME280_temperature;BME280_humidity;BME280_pressure;Samples;Min_cycle;Max_cycle;Signal;HPM_P1;HPM_P2
2023/01/08 00:00:57;;;;;;;1.10;1.00;;;10.60;99.90;;;;;;4997352;28;20263;-87
2023/01/08 00:03:23;;;;;;;1.80;1.33;;;10.50;99.90;;;;;;4998789;28;20223;-87
2023/01/08 00:05:49;;;;;;;1.50;1.17;;;10.50;99.90;;;;;;4998349;28;20188;-86
2023/01/08 00:08:15;;;;;;;3.63;1.20;;;10.50;99.90;;;;;;4999514;28;20186;-86
2023/01/08 00:10:40;;;;;;;1.60;1.30;;;10.50;99.90;;;;;;4965722;28;20198;-86
2023/01/08 00:13:06;;;;;;;1.57;1.23;;;10.40;99.90;;;;;;4998484;28;20191;-86
2023/01/08 00:15:35;;;;;;;1.40;1.23;;;10.50;99.90;;;;;;4999364;28;20183;-87
2023/01/08 00:18:01;;;;;;;1.40;1.30;;;10.50;99.90;;;;;;4999140;28;20184;-87
2023/01/08 00:20:27;;;;;;;2.67;1.40;;;10.40;99.90;;;;;;4981318;28;20581;-86
2023/01/08 00:22:53;;;;;;;1.30;1.10;;;10.40;99.90;;;;;;4999119;28;20267;-87
2023/01/08 00:25:19;;;;;;;1.50;1.07;;;10.30;99.90;;;;;;4998579;28;20437;-86
2023/01/08 00:27:45;;;;;;;1.73;1.20;;;10.30;99.90;;;;;;4999413;28;20176;-87
2023/01/08 00:30:11;;;;;;;1.73;1.37;;;10.30;99.90;;;;;;4998969;28;20190;-87
2023/01/08 00:32:37;;;;;;;2.60;2.40;;;10.30;99.90;;;;;;4998624;28;20927;-87
2023/01/08 00:35:03;;;;;;;2.07;1.40;;;10.20;99.90;;;;;;4997056;28;20188;-83
2023/01/08 00:37:29;;;;;;;1.45;1.33;;;10.30;99.90;;;;;;4997562;28;20522;-87
2023/01/08 00:39:55;;;;;;;2.47;1.43;;;10.20;99.90;;;;;;4998456;28;20186;-86
2023/01/08 00:42:21;;;;;;;1.50;1.30;;;10.20;99.90;;;;;;4997066;28;20415;-87
2023/01/08 00:44:47;;;;;;;1.47;1.37;;;10.20;99.90;;;;;;4997734;28;20187;-87
2023/01/08 00:47:13;;;;;;;1.80;1.33;;;10.20;99.90;;;;;;4995843;28;20469;-87
2023/01/08 00:49:39;;;;;;;1.58;1.35;;;10.20;99.90;;;;;;5001084;28;20229;-88
2023/01/08 00:52:04;;;;;;;2.30;1.70;;;10.20;99.90;;;;;;5017180;28;20187;-87
2023/01/08 00:54:30;;;;;;;1.30;1.20;;;10.20;99.90;;;;;;5016573;28;20182;-86
2023/01/08 00:56:56;;;;;;;1.47;1.37;;;10.30;99.90;;;;;;5017347;28;20205;-86
2023/01/08 00:59:21;;;;;;;1.70;1.60;;;10.30;99.90;;;;;;4999128;28;20186;-86
2023/01/08 01:01:47;;;;;;;2.80;1.30;;;10.30;99.90;;;;;;5017119;28;20428;-86
2023/01/08 01:04:13;;;;;;;1.70;1.60;;;10.30;99.90;;;;;;4982993;28;20210;-86
2023/01/08 01:06:40;;;;;;;1.52;1.42;;;10.30;99.90;;;;;;5012631;28;20563;-83
2023/01/08 01:09:06;;;;;;;3.47;1.63;;;10.30;99.90;;;;;;5014079;28;20657;-85
2023/01/08 01:11:32;;;;;;;1.73;1.40;;;10.30;99.90;;;;;;5002037;28;20247;-83
2023/01/08 01:13:57;;;;;;;1.37;1.10;;;10.30;99.90;;;;;;5018041;28;20218;-85
2023/01/08 01:16:23;;;;;;;1.47;1.30;;;10.30;99.90;;;;;;5018737;28;20604;-86
2023/01/08 01:18:51;;;;;;;4.50;1.50;;;10.30;99.90;;;;;;4953921;28;20274;-86
2023/01/08 01:21:29;;;;;;;1.45;1.33;;;10.30;99.90;;;;;;4981536;28;20587;-86
2023/01/08 01:24:01;;;;;;;1.65;1.30;;;10.30;99.90;;;;;;4997828;28;20199;-85
2023/01/08 01:26:27;;;;;;;3.78;1.70;;;10.30;99.90;;;;;;4980306;28;20194;-86
2023/01/08 01:28:55;;;;;;;2.20;1.53;;;10.30;99.90;;;;;;4949056;28;20188;-86
2023/01/08 01:31:21;;;;;;;2.30;1.67;;;10.30;99.90;;;;;;4997106;28;20230;-86
2023/01/08 01:33:47;;;;;;;2.75;1.80;;;10.30;99.90;;;;;;4997425;28;20183;-86
2023/01/08 01:36:15;;;;;;;2.63;1.50;;;10.30;99.90;;;;;;4996839;28;20171;-85
2023/01/08 01:38:49;;;;;;;2.38;1.50;;;10.30;99.90;;;;;;4979729;28;20180;-87
2023/01/08 01:41:28;;;;;;;2.72;2.30;;;10.30;99.90;;;;;;4996633;28;20537;-86
2023/01/08 01:43:55;;;;;;;2.83;1.77;;;10.30;99.90;;;;;;4979774;28;20246;-87
2023/01/08 01:46:36;;;;;;;5.43;2.28;;;10.30;99.90;;;;;;4996372;28;20220;-87
2023/01/08 01:49:20;;;;;;;3.25;2.10;;;10.30;99.90;;;;;;4996653;28;20250;-87
2023/01/08 01:51:52;;;;;;;3.47;2.20;;;10.30;99.90;;;;;;4979547;28;20290;-87
2023/01/08 01:54:18;;;;;;;3.67;1.60;;;10.30;99.90;;;;;;4995501;28;20230;-86
2023/01/08 01:56:45;;;;;;;4.22;1.80;;;10.40;99.90;;;;;;4996244;28;20187;-87
2023/01/08 01:59:11;;;;;;;3.95;1.92;;;10.40;99.90;;;;;;4996399;28;20237;-86
2023/01/08 02:01:37;;;;;;;3.45;1.75;;;10.40;99.90;;;;;;4978976;28;20253;-86
2023/01/08 02:04:03;;;;;;;1.73;1.63;;;10.40;99.90;;;;;;4996433;28;20203;-87
2023/01/08 02:06:53;;;;;;;2.57;1.80;;;10.40;99.90;;;;;;4962499;28;20195;-87
2023/01/08 02:09:37;;;;;;;1.92;1.73;;;10.40;99.90;;;;;;4996022;28;20246;-87
2023/01/08 02:12:16;;;;;;;3.40;2.10;;;10.40;99.90;;;;;;4978864;28;20679;-87
2023/01/08 02:14:48;;;;;;;1.90;1.77;;;10.40;99.90;;;;;;4978915;28;20180;-87
2023/01/08 02:17:19;;;;;;;2.60;1.85;;;10.30;99.90;;;;;;4995611;28;20561;-84
2023/01/08 02:20:10;;;;;;;3.17;2.05;;;10.30;99.90;;;;;;4977828;28;20195;-86
2023/01/08 02:22:47;;;;;;;2.42;1.70;;;10.20;99.90;;;;;;4987776;28;20247;-86
2023/01/08 02:25:22;;;;;;;4.10;2.10;;;10.20;99.90;;;;;;4995259;28;20175;-86
2023/01/08 02:27:52;;;;;;;2.60;2.17;;;10.30;99.90;;;;;;4996066;28;20665;-86
2023/01/08 02:30:18;;;;;;;3.53;1.80;;;10.30;99.90;;;;;;4995159;28;20168;-85
2023/01/08 02:32:44;;;;;;;2.00;1.60;;;10.20;99.90;;;;;;4990620;28;20183;-84
2023/01/08 02:35:10;;;;;;;2.10;1.73;;;10.20;99.90;;;;;;4990869;28;20597;-79
2023/01/08 02:37:36;;;;;;;1.83;1.40;;;10.20;99.90;;;;;;4995115;28;20188;-86
2023/01/08 02:40:28;;;;;;;3.47;1.48;;;10.20;99.90;;;;;;4989869;28;20195;-84
2023/01/08 02:43:13;;;;;;;1.63;1.52;;;10.20;99.90;;;;;;4991953;28;20253;-86
2023/01/08 02:45:57;;;;;;;2.38;1.60;;;10.20;99.90;;;;;;4995496;28;20183;-86
2023/01/08 02:48:39;;;;;;;2.47;1.50;;;10.20;99.90;;;;;;4995352;28;20206;-85
2023/01/08 02:51:23;;;;;;;1.90;1.40;;;10.20;99.90;;;;;;4996063;28;20235;-85
2023/01/08 02:53:53;;;;;;;2.30;1.50;;;10.20;99.90;;;;;;4995670;28;20410;-85
2023/01/08 02:56:22;;;;;;;2.97;1.40;;;10.20;99.90;;;;;;4995260;28;20176;-85
2023/01/08 02:58:49;;;;;;;1.45;1.25;;;10.10;99.90;;;;;;4977857;28;20187;-85
2023/01/08 03:01:16;;;;;;;1.77;1.67;;;10.10;99.90;;;;;;4977679;28;20190;-85
2023/01/08 03:03:45;;;;;;;2.00;1.80;;;10.20;99.90;;;;;;4995576;28;20214;-85
2023/01/08 03:06:16;;;;;;;2.25;1.50;;;10.20;99.90;;;;;;4996228;28;20187;-81
2023/01/08 03:08:45;;;;;;;2.42;1.58;;;10.10;99.90;;;;;;4999076;28;20167;-86
2023/01/08 03:11:13;;;;;;;1.80;1.60;;;10.10;99.90;;;;;;4981778;28;20176;-86
2023/01/08 03:13:41;;;;;;;2.47;1.70;;;10.10;99.90;;;;;;4981584;28;20194;-86
2023/01/08 03:16:15;;;;;;;2.88;1.92;;;10.10;99.90;;;;;;4999339;28;20521;-85
2023/01/08 03:18:48;;;;;;;2.08;1.88;;;10.10;99.90;;;;;;4999040;28;20179;-85
2023/01/08 03:21:16;;;;;;;2.20;1.48;;;10.10;99.90;;;;;;4998756;28;20160;-84
2023/01/08 03:23:43;;;;;;;1.80;1.58;;;10.10;99.90;;;;;;4999147;28;20682;-85
2023/01/08 03:26:12;;;;;;;1.90;1.35;;;10.10;99.90;;;;;;4998816;28;20187;-86
2023/01/08 03:28:44;;;;;;;1.55;1.27;;;10.10;99.90;;;;;;4998863;28;20263;-86
2023/01/08 03:31:15;;;;;;;1.58;1.30;;;10.10;99.90;;;;;;4981221;28;20226;-85
2023/01/08 03:33:43;;;;;;;2.25;1.70;;;10.10;99.90;;;;;;4999027;28;20254;-86
2023/01/08 03:36:13;;;;;;;1.70;1.10;;;10.00;99.90;;;;;;4983785;28;20215;-86
2023/01/08 03:38:44;;;;;;;1.08;0.82;;;10.10;99.90;;;;;;4981268;28;20186;-85
2023/01/08 03:41:13;;;;;;;1.75;0.90;;;10.10;99.90;;;;;;4980887;28;20198;-86
2023/01/08 03:43:39;;;;;;;1.65;1.10;;;10.10;99.90;;;;;;4998195;28;20215;-86
2023/01/08 03:46:12;;;;;;;0.95;0.88;;;10.10;99.90;;;;;;4965604;28;20191;-86
2023/01/08 03:48:39;;;;;;;0.82;0.70;;;10.10;99.90;;;;;;4980384;28;20199;-86
2023/01/08 03:51:11;;;;;;;1.40;0.88;;;10.20;99.90;;;;;;4980155;28;20605;-84
2023/01/08 03:53:37;;;;;;;1.10;0.85;;;10.20;99.90;;;;;;4998050;28;20179;-86
2023/01/08 03:56:03;;;;;;;0.90;0.70;;;10.20;99.90;;;;;;4980610;28;20628;-86
2023/01/08 03:58:28;;;;;;;0.97;0.67;;;10.30;99.90;;;;;;4980903;28;20275;-86
2023/01/08 04:00:54;;;;;;;0.90;0.80;;;10.30;99.90;;;;;;4980520;28;20414;-86
2023/01/08 04:03:19;;;;;;;0.97;0.70;;;10.30;99.90;;;;;;4980359;28;20253;-86
2023/01/08 04:05:45;;;;;;;1.50;0.83;;;10.30;99.90;;;;;;4980822;28;20210;-86
2023/01/08 04:08:10;;;;;;;1.83;1.00;;;10.30;99.90;;;;;;4980454;28;20513;-86
2023/01/08 04:10:36;;;;;;;4.73;1.10;;;10.30;99.90;;;;;;4997627;28;20175;-86
2023/01/08 04:13:02;;;;;;;1.33;0.80;;;10.40;99.90;;;;;;4998372;28;20246;-87
2023/01/08 04:15:27;;;;;;;0.80;0.70;;;10.30;99.90;;;;;;4980711;28;20180;-86
2023/01/08 04:17:53;;;;;;;1.43;0.80;;;10.40;99.90;;;;;;4997848;28;20186;-86
2023/01/08 04:20:19;;;;;;;0.90;0.70;;;10.40;99.90;;;;;;4980567;28;20179;-86
2023/01/08 04:22:44;;;;;;;1.30;0.83;;;10.40;99.90;;;;;;4980637;28;20215;-86
2023/01/08 04:25:10;;;;;;;1.60;0.70;;;10.40;99.90;;;;;;4980197;28;20183;-87
2023/01/08 04:27:36;;;;;;;1.00;0.80;;;10.30;99.90;;;;;;4997385;28;20184;-87
2023/01/08 04:30:01;;;;;;;0.83;0.80;;;10.30;99.90;;;;;;4998372;28;20175;-86
2023/01/08 04:32:27;;;;;;;1.77;0.70;;;10.30;99.90;;;;;;4980610;28;20660;-87
2023/01/08 04:34:53;;;;;;;1.00;0.70;;;10.30;99.90;;;;;;4997755;28;20612;-86
2023/01/08 04:37:18;;;;;;;0.90;0.60;;;10.30;99.90;;;;;;4997750;28;20271;-85
2023/01/08 04:39:44;;;;;;;1.27;0.90;;;10.20;99.90;;;;;;4997209;28;20176;-86
2023/01/08 04:42:09;;;;;;;1.00;0.70;;;10.20;99.90;;;;;;4997500;28;20171;-86
2023/01/08 04:44:35;;;;;;;0.60;0.60;;;10.20;99.90;;;;;;4997172;28;20250;-86
2023/01/08 04:47:00;;;;;;;0.97;0.90;;;10.20;99.90;;;;;;4997315;28;20188;-84
2023/01/08 04:49:26;;;;;;;1.37;0.70;;;10.20;99.90;;;;;;4978813;28;20183;-85
2023/01/08 04:51:51;;;;;;;0.70;0.70;;;10.30;99.90;;;;;;4979886;28;20183;-86
2023/01/08 04:54:17;;;;;;;0.80;0.60;;;10.30;99.90;;;;;;4979096;28;20188;-82
2023/01/08 04:56:43;;;;;;;0.77;0.67;;;10.30;99.90;;;;;;4979310;28;20295;-85
2023/01/08 04:59:08;;;;;;;0.93;0.60;;;10.30;99.90;;;;;;4979665;28;20191;-86
2023/01/08 05:01:34;;;;;;;1.77;0.90;;;10.30;99.90;;;;;;4978882;28;20207;-86
2023/01/08 05:04:03;;;;;;;1.53;0.70;;;10.30;99.90;;;;;;4979035;28;20211;-85
2023/01/08 05:06:30;;;;;;;1.02;0.60;;;10.30;99.90;;;;;;4978651;28;20241;-84
2023/01/08 05:08:56;;;;;;;1.05;0.70;;;10.20;99.90;;;;;;4998006;28;20202;-85
2023/01/08 05:11:23;;;;;;;1.20;0.70;;;10.20;99.90;;;;;;4996006;28;20183;-85
2023/01/08 05:13:50;;;;;;;0.90;0.80;;;10.20;99.90;;;;;;4996893;28;20191;-86
2023/01/08 05:16:16;;;;;;;0.70;0.60;;;10.20;99.90;;;;;;4978556;28;20663;-86
2023/01/08 05:18:43;;;;;;;1.00;0.70;;;10.20;99.90;;;;;;4996811;28;20183;-85
2023/01/08 05:21:08;;;;;;;0.65;0.50;;;10.20;99.90;;;;;;4997094;28;20183;-85
2023/01/08 05:23:34;;;;;;;0.80;0.70;;;10.20;99.90;;;;;;4996886;28;20727;-85
2023/01/08 05:26:01;;;;;;;1.27;0.70;;;10.10;99.90;;;;;;4979144;28;20188;-85
2023/01/08 05:28:27;;;;;;;0.73;0.60;;;10.10;99.90;;;;;;4978449;28;20266;-86
2023/01/08 05:30:53;;;;;;;1.00;0.60;;;10.10;99.90;;;;;;4996476;28;20606;-86
2023/01/08 05:33:19;;;;;;;0.80;0.60;;;10.00;99.90;;;;;;4996956;28;20177;-85
2023/01/08 05:35:45;;;;;;;0.70;0.70;;;10.00;99.90;;;;;;4997126;28;20183;-85
2023/01/08 05:38:11;;;;;;;1.00;0.60;;;10.00;99.90;;;;;;4979362;28;20502;-85
2023/01/08 05:40:36;;;;;;;1.23;0.70;;;9.90;99.90;;;;;;4996491;28;20433;-86
2023/01/08 05:43:04;;;;;;;1.10;0.60;;;9.90;99.90;;;;;;4996472;28;20211;-85
2023/01/08 05:45:30;;;;;;;1.80;0.70;;;10.00;99.90;;;;;;4963029;28;20191;-85
2023/01/08 05:47:56;;;;;;;1.15;0.80;;;10.00;99.90;;;;;;4997175;28;20547;-84
2023/01/08 05:50:21;;;;;;;1.10;1.00;;;10.00;99.90;;;;;;4962706;28;20231;-80
2023/01/08 05:52:47;;;;;;;2.13;0.77;;;9.90;99.90;;;;;;4997277;28;20187;-86
2023/01/08 05:55:12;;;;;;;0.90;0.73;;;9.90;99.90;;;;;;4979804;28;20198;-87
2023/01/08 05:57:38;;;;;;;0.80;0.67;;;9.80;99.90;;;;;;4979330;28;20176;-86
2023/01/08 06:00:06;;;;;;;0.80;0.67;;;9.80;99.90;;;;;;4996621;28;20176;-85
2023/01/08 06:02:32;;;;;;;0.75;0.65;;;9.70;99.90;;;;;;4973584;28;20195;-83
2023/01/08 06:04:58;;;;;;;2.80;0.63;;;9.70;99.90;;;;;;4991054;28;20262;-82
2023/01/08 06:07:23;;;;;;;0.87;0.70;;;9.60;99.90;;;;;;4991095;28;20180;-84
2023/01/08 06:09:49;;;;;;;0.70;0.67;;;9.60;99.90;;;;;;4991102;28;20224;-84
2023/01/08 06:12:15;;;;;;;0.80;0.60;;;9.60;99.90;;;;;;4992034;28;20180;-83
2023/01/08 06:14:40;;;;;;;1.00;0.63;;;9.60;99.90;;;;;;4989741;28;20648;-82
2023/01/08 06:17:06;;;;;;;0.97;0.67;;;9.50;99.90;;;;;;4976825;28;20184;-85
2023/01/08 06:19:31;;;;;;;1.00;0.70;;;9.50;99.90;;;;;;4977615;28;20205;-85
2023/01/08 06:21:57;;;;;;;0.90;0.60;;;9.50;99.90;;;;;;4995277;28;20175;-84
2023/01/08 06:24:22;;;;;;;0.90;0.70;;;9.50;99.90;;;;;;4995116;28;20369;-81
2023/01/08 06:26:48;;;;;;;0.70;0.60;;;9.50;99.90;;;;;;4995218;28;20245;-85
2023/01/08 06:29:14;;;;;;;0.70;0.60;;;9.50;99.90;;;;;;4977526;28;20198;-85
2023/01/08 06:31:39;;;;;;;0.70;0.70;;;9.50;99.90;;;;;;4995260;28;20294;-85
2023/01/08 06:34:05;;;;;;;2.30;0.90;;;9.50;99.90;;;;;;4995775;28;20187;-85
2023/01/08 06:36:30;;;;;;;0.97;0.60;;;9.50;99.90;;;;;;4995847;28;20179;-86
2023/01/08 06:38:56;;;;;;;1.50;0.70;;;9.50;99.90;;;;;;4979132;28;20176;-85
2023/01/08 06:41:22;;;;;;;0.70;0.60;;;9.50;99.90;;;;;;4995558;28;20257;-86
2023/01/08 06:43:50;;;;;;;1.10;0.70;;;9.50;99.90;;;;;;4962716;28;20289;-90
2023/01/08 06:46:16;;;;;;;3.67;0.90;;;9.50;99.90;;;;;;4970571;28;20187;-90
2023/01/08 06:48:41;;;;;;;1.20;0.83;;;9.20;99.90;;;;;;4996529;28;20187;-90
2023/01/08 06:51:07;;;;;;;2.13;1.00;;;8.80;99.90;;;;;;4962204;28;20233;-91
2023/01/08 06:53:33;;;;;;;1.50;1.10;;;8.40;99.90;;;;;;4996395;28;20187;-90
2023/01/08 06:55:58;;;;;;;2.10;0.70;;;8.20;99.90;;;;;;4995582;28;20306;-89
2023/01/08 06:58:26;;;;;;;1.20;0.90;;;8.10;99.90;;;;;;4996208;28;20498;-88
2023/01/08 07:00:51;;;;;;;3.50;0.85;;;8.10;99.90;;;;;;4995422;28;20190;-87
2023/01/08 07:03:17;;;;;;;1.43;0.83;;;8.00;99.90;;;;;;4995393;28;20294;-89
2023/01/08 07:05:43;;;;;;;3.73;0.73;;;7.90;99.90;;;;;;4995946;28;20175;-89
2023/01/08 07:08:14;;;;;;;1.07;0.77;;;7.90;99.90;;;;;;4978299;28;20175;-88
2023/01/08 07:10:40;;;;;;;2.35;0.90;;;7.90;99.90;;;;;;4994683;28;20521;-87
2023/01/08 07:13:08;;;;;;;3.22;1.00;;;7.90;99.90;;;;;;4981547;28;20281;-88
2023/01/08 07:15:40;;;;;;;2.65;0.98;;;7.90;99.90;;;;;;5001202;28;20184;-88
2023/01/08 07:18:08;;;;;;;9.02;1.13;;;7.90;99.90;;;;;;5002673;28;20699;-88
2023/01/08 07:20:34;;;;;;;2.80;1.08;;;7.90;99.90;;;;;;4998438;28;20201;-88
2023/01/08 07:23:04;;;;;;;2.43;0.97;;;7.90;99.90;;;;;;4983028;28;20266;-88
2023/01/08 07:25:30;;;;;;;2.75;1.20;;;7.90;99.90;;;;;;4979151;28;20187;-88
2023/01/08 07:27:56;;;;;;;3.03;1.27;;;7.90;99.90;;;;;;4980045;28;20207;-89
2023/01/08 07:30:22;;;;;;;3.72;0.85;;;7.90;99.90;;;;;;4996091;28;20187;-88
2023/01/08 07:32:48;;;;;;;2.97;0.80;;;7.90;99.90;;;;;;4995394;28;20195;-88
2023/01/08 07:35:14;;;;;;;3.50;0.80;;;8.00;99.90;;;;;;4961161;28;20438;-87
2023/01/08 07:37:40;;;;;;;4.07;1.00;;;8.00;99.90;;;;;;4977057;28;20740;-88
2023/01/08 07:40:10;;;;;;;4.95;1.67;;;8.00;99.90;;;;;;4977094;28;20521;-89
2023/01/08 07:42:36;;;;;;;4.10;1.00;;;7.90;99.90;;;;;;4976784;28;20183;-88
2023/01/08 07:45:02;;;;;;;3.20;0.90;;;7.90;99.90;;;;;;4994266;28;20594;-88
2023/01/08 07:47:28;;;;;;;6.40;1.05;;;8.00;99.90;;;;;;4994566;28;20410;-83
2023/01/08 07:49:53;;;;;;;3.47;0.97;;;8.00;99.90;;;;;;4976660;28;20311;-88
2023/01/08 07:52:19;;;;;;;5.03;1.10;;;8.00;99.90;;;;;;4978772;28;20187;-88
2023/01/08 07:54:45;;;;;;;5.70;1.17;;;8.00;99.90;;;;;;4980540;28;20186;-89
2023/01/08 07:57:10;;;;;;;1.80;1.30;;;8.00;99.90;;;;;;4998330;28;20184;-87
2023/01/08 07:59:36;;;;;;;4.80;1.00;;;8.00;99.90;;;;;;4998284;28;20183;-87
2023/01/08 08:02:01;;;;;;;6.40;1.50;;;8.00;99.90;;;;;;4964619;28;20179;-87
2023/01/08 08:04:27;;;;;;;3.47;1.03;;;8.10;99.90;;;;;;4980259;28;20214;-87
2023/01/08 08:06:53;;;;;;;2.83;1.10;;;8.10;99.90;;;;;;4980073;28;20211;-86
2023/01/08 08:09:19;;;;;;;6.15;1.45;;;8.20;99.90;;;;;;4980259;28;20179;-86
2023/01/08 08:11:44;;;;;;;5.10;1.50;;;8.20;99.90;;;;;;4963671;28;20731;-87
2023/01/08 08:14:10;;;;;;;4.40;1.30;;;8.20;99.90;;;;;;4980049;28;20278;-86
2023/01/08 08:16:36;;;;;;;5.97;1.50;;;8.20;99.90;;;;;;4979733;28;20519;-87
2023/01/08 08:19:01;;;;;;;3.80;1.50;;;8.10;99.90;;;;;;4979881;28;20226;-86
2023/01/08 08:21:28;;;;;;;5.27;0.93;;;8.10;99.90;;;;;;4979907;28;20624;-87
2023/01/08 08:23:54;;;;;;;4.47;1.40;;;8.20;99.90;;;;;;4949072;28;20352;-87
2023/01/08 08:26:19;;;;;;;4.63;1.30;;;8.20;99.90;;;;;;4948586;28;20221;-85
2023/01/08 08:28:45;;;;;;;3.73;1.80;;;8.20;99.90;;;;;;4981794;28;20421;-84
2023/01/08 08:31:11;;;;;;;5.13;1.33;;;8.10;99.90;;;;;;4969061;28;20194;-84
2023/01/08 08:33:36;;;;;;;5.43;1.57;;;8.10;99.90;;;;;;4986689;28;20184;-84
2023/01/08 08:36:02;;;;;;;2.40;1.20;;;8.00;99.90;;;;;;5002767;28;20273;-84
2023/01/08 08:38:27;;;;;;;7.80;1.30;;;8.00;99.90;;;;;;4969774;28;20186;-84
2023/01/08 08:40:53;;;;;;;8.23;1.57;;;8.00;99.90;;;;;;4986346;28;20254;-83
2023/01/08 08:43:19;;;;;;;6.53;2.03;;;7.90;99.90;;;;;;4970252;28;20217;-83
2023/01/08 08:45:44;;;;;;;4.63;1.20;;;7.90;99.90;;;;;;4971136;28;20555;-84
2023/01/08 08:48:10;;;;;;;6.93;1.77;;;7.90;99.90;;;;;;4987578;28;20255;-84
2023/01/08 08:50:36;;;;;;;3.53;1.10;;;7.90;99.90;;;;;;4984995;28;20241;-83
2023/01/08 08:53:04;;;;;;;2.28;1.02;;;7.80;99.90;;;;;;4998530;28;20191;-84
2023/01/08 08:55:29;;;;;;;2.63;1.55;;;7.80;99.90;;;;;;4979681;28;20191;-77
2023/01/08 08:58:02;;;;;;;3.33;1.30;;;7.70;99.90;;;;;;4980178;28;20186;-77
2023/01/08 09:00:28;;;;;;;4.82;1.40;;;7.70;99.90;;;;;;4980593;28;20179;-77
2023/01/08 09:02:53;;;;;;;4.13;1.50;;;7.60;99.90;;;;;;4979479;28;20233;-78
2023/01/08 09:05:19;;;;;;;6.63;1.60;;;7.60;99.90;;;;;;4997724;28;20250;-78
2023/01/08 09:07:45;;;;;;;7.63;1.70;;;7.60;99.90;;;;;;4980147;28;20251;-77
2023/01/08 09:10:10;;;;;;;3.50;1.60;;;7.50;99.90;;;;;;4963878;28;20184;-78
2023/01/08 09:12:36;;;;;;;5.50;1.40;;;7.50;99.90;;;;;;4980263;28;20687;-78
2023/01/08 09:15:01;;;;;;;5.23;1.57;;;7.50;99.90;;;;;;4948131;28;20188;-77
2023/01/08 09:17:27;;;;;;;2.70;1.00;;;7.50;99.90;;;;;;4997079;28;20206;-77
2023/01/08 09:19:53;;;;;;;4.83;1.37;;;7.60;99.90;;;;;;4979613;28;20258;-79
2023/01/08 09:22:19;;;;;;;5.00;1.20;;;7.60;99.90;;;;;;4963943;28;20188;-78
2023/01/08 09:24:44;;;;;;;2.47;0.85;;;7.70;99.90;;;;;;4997277;28;20215;-79
2023/01/08 09:27:10;;;;;;;3.37;0.90;;;7.80;99.90;;;;;;4964048;28;20258;-79
2023/01/08 09:29:36;;;;;;;3.27;1.00;;;7.90;99.90;;;;;;4959571;28;20274;-78
2023/01/08 09:32:05;;;;;;;3.53;1.10;;;8.00;99.90;;;;;;4959162;28;20179;-79
2023/01/08 09:34:31;;;;;;;1.90;0.60;;;8.10;99.90;;;;;;4990861;28;20616;-78
2023/01/08 09:36:57;;;;;;;3.20;0.80;;;8.20;99.90;;;;;;4973676;28;20263;-78
2023/01/08 09:39:22;;;;;;;1.67;0.80;;;8.40;99.90;;;;;;4974100;28;20411;-79
2023/01/08 09:41:49;;;;;;;1.10;0.80;;;8.50;99.90;;;;;;4994207;28;20266;-79
2023/01/08 09:44:19;;;;;;;0.90;0.65;;;8.60;99.90;;;;;;4979481;28;20212;-78
2023/01/08 09:46:46;;;;;;;1.13;0.85;;;8.80;99.90;;;;;;4996336;28;20612;-79
2023/01/08 09:49:19;;;;;;;3.22;1.10;;;8.90;99.90;;;;;;4963273;28;20226;-79
2023/01/08 09:51:45;;;;;;;2.10;0.70;;;9.00;99.90;;;;;;4997131;28;20171;-79
2023/01/08 09:54:14;;;;;;;1.87;0.97;;;8.90;99.90;;;;;;4963268;28;20192;-79
2023/01/08 09:56:40;;;;;;;5.28;1.20;;;9.00;99.90;;;;;;4996088;28;20180;-79
2023/01/08 09:59:09;;;;;;;2.23;1.00;;;9.20;99.90;;;;;;4996877;28;20191;-79
2023/01/08 10:01:37;;;;;;;4.15;1.10;;;9.30;99.90;;;;;;4979801;28;20423;-79
2023/01/08 10:04:04;;;;;;;2.58;1.40;;;9.40;99.90;;;;;;4979135;28;20212;-80
2023/01/08 10:06:30;;;;;;;4.43;1.17;;;9.50;99.90;;;;;;4996696;28;20589;-79
2023/01/08 10:08:56;;;;;;;1.17;0.80;;;9.50;99.90;;;;;;4946048;28;20200;-79
2023/01/08 10:11:25;;;;;;;1.00;0.80;;;9.60;99.90;;;;;;4962209;28;20187;-79
2023/01/08 10:13:56;;;;;;;2.78;0.90;;;9.80;99.90;;;;;;4962528;28;20192;-79
2023/01/08 10:16:29;;;;;;;1.70;0.85;;;9.90;99.90;;;;;;4995778;28;20178;-79
2023/01/08 10:18:56;;;;;;;2.45;1.08;;;10.20;99.90;;;;;;4995477;28;20194;-80
2023/01/08 10:21:29;;;;;;;2.10;1.00;;;10.50;99.90;;;;;;4962533;28;20184;-80
2023/01/08 10:23:55;;;;;;;4.43;1.43;;;10.50;99.90;;;;;;4977937;28;20723;-80
2023/01/08 10:26:35;;;;;;;3.80;1.50;;;10.60;99.90;;;;;;4962375;28;20515;-80
2023/01/08 10:29:19;;;;;;;2.70;1.27;;;10.60;99.90;;;;;;4995927;28;20218;-80
2023/01/08 10:31:46;;;;;;;1.67;1.00;;;10.50;99.90;;;;;;4962495;28;20191;-80
2023/01/08 10:34:22;;;;;;;2.30;1.38;;;10.60;99.90;;;;;;4978509;28;20234;-81
2023/01/08 10:36:50;;;;;;;4.20;1.70;;;10.70;99.90;;;;;;4977993;28;20195;-80
2023/01/08 10:39:22;;;;;;;4.07;1.55;;;10.70;99.90;;;;;;4946624;28;20183;-80
2023/01/08 10:41:52;;;;;;;2.00;1.23;;;10.80;99.90;;;;;;4977937;28;20194;-80
2023/01/08 10:44:18;;;;;;;9.32;1.40;;;10.90;99.90;;;;;;4977741;28;20239;-80
2023/01/08 10:46:49;;;;;;;2.75;1.63;;;11.00;99.90;;;;;;4961728;28;20655;-80
2023/01/08 10:49:38;;;;;;;4.87;1.10;;;11.10;99.90;;;;;;4994895;28;20195;-80
2023/01/08 10:52:04;;;;;;;3.38;1.10;;;11.10;99.90;;;;;;4977455;28;20793;-80
2023/01/08 10:54:39;;;;;;;3.10;1.83;;;11.40;99.90;;;;;;4962024;28;20202;-80
2023/01/08 10:57:20;;;;;;;2.07;1.20;;;11.60;99.90;;;;;;4978457;28;20786;-80
2023/01/08 10:59:46;;;;;;;5.93;2.30;;;11.90;99.90;;;;;;4977385;28;20423;-81
2023/01/08 11:02:31;;;;;;;3.30;1.50;;;12.30;99.90;;;;;;4978318;28;20477;-80
2023/01/08 11:04:58;;;;;;;4.63;2.23;;;12.50;99.90;;;;;;4977600;28;20659;-80
2023/01/08 11:07:24;;;;;;;1.27;0.80;;;12.60;99.90;;;;;;4978040;28;20410;-80
2023/01/08 11:09:51;;;;;;;3.50;1.43;;;12.50;99.90;;;;;;4977762;28;20419;-80
2023/01/08 11:12:39;;;;;;;3.10;1.30;;;12.60;99.90;;;;;;4978111;28;20433;-79
2023/01/08 11:15:18;;;;;;;1.00;0.70;;;12.50;99.90;;;;;;4994892;28;20395;-80
2023/01/08 11:17:44;;;;;;;3.13;1.17;;;12.40;99.90;;;;;;4977858;28;20832;-80
2023/01/08 11:20:30;;;;;;;2.07;0.80;;;12.30;99.90;;;;;;4962370;28;20529;-79
2023/01/08 11:23:21;;;;;;;3.60;0.80;;;12.20;99.90;;;;;;4977596;28;20508;-80
2023/01/08 11:26:19;;;;;;;2.58;1.10;;;12.20;99.90;;;;;;4978433;28;20420;-79
2023/01/08 11:28:51;;;;;;;1.63;0.80;;;12.20;99.90;;;;;;4987289;28;20184;-79
2023/01/08 11:31:24;;;;;;;3.17;1.08;;;12.20;99.90;;;;;;4983563;28;20423;-79
2023/01/08 11:33:57;;;;;;;1.47;0.60;;;12.10;99.90;;;;;;4982947;28;20179;-79
2023/01/08 11:36:38;;;;;;;0.97;0.63;;;12.00;99.90;;;;;;5001688;28;20421;-80
2023/01/08 11:39:08;;;;;;;1.10;0.63;;;11.90;99.90;;;;;;4965816;28;20454;-80
2023/01/08 11:41:49;;;;;;;3.43;0.83;;;12.40;99.90;;;;;;4982681;28;20179;-80
2023/01/08 11:44:36;;;;;;;1.30;0.80;;;12.60;99.90;;;;;;5000619;28;20455;-80
2023/01/08 11:47:11;;;;;;;1.37;0.60;;;13.30;99.90;;;;;;4982003;28;20438;-80
2023/01/08 11:49:58;;;;;;;2.03;0.60;;;13.90;99.90;;;;;;4981285;28;20478;-81
2023/01/08 11:52:46;;;;;;;1.57;1.00;;;14.20;99.90;;;;;;4998483;28;20871;-80
2023/01/08 11:55:29;;;;;;;2.20;0.90;;;14.60;99.90;;;;;;4980960;28;20427;-80
2023/01/08 11:58:09;;;;;;;1.00;0.60;;;14.00;99.90;;;;;;4980897;28;20419;-79
2023/01/08 12:00:44;;;;;;;0.70;0.60;;;13.60;99.90;;;;;;4998490;28;20819;-79
2023/01/08 12:03:29;;;;;;;0.70;0.57;;;13.20;99.90;;;;;;4998875;28;20795;-80
2023/01/08 12:06:02;;;;;;;0.90;0.67;;;12.90;99.90;;;;;;4979866;28;20759;-79
2023/01/08 12:08:33;;;;;;;1.60;0.53;;;12.80;99.90;;;;;;4980965;28;20415;-79
2023/01/08 12:11:19;;;;;;;0.90;0.50;;;13.10;99.90;;;;;;4980708;28;20784;-81
2023/01/08 12:13:54;;;;;;;0.80;0.53;;;13.30;99.90;;;;;;4980304;28;20769;-79
2023/01/08 12:17:04;;;;;;;0.60;0.50;;;13.20;99.90;;;;;;4980739;28;20426;-80
2023/01/08 12:19:42;;;;;;;0.83;0.60;;;13.20;99.90;;;;;;4921695;29;20444;-81
2023/01/08 12:22:45;;;;;;;0.60;0.50;;;13.00;99.90;;;;;;4921395;29;20425;-81
2023/01/08 12:25:35;;;;;;;1.20;0.52;;;12.70;99.90;;;;;;4971347;28;20435;-81
2023/01/08 12:28:30;;;;;;;0.50;0.40;;;12.40;99.90;;;;;;4999692;28;20175;-80
2023/01/08 12:30:59;;;;;;;0.70;0.60;;;12.20;99.90;;;;;;4980901;28;20782;-80
2023/01/08 12:33:46;;;;;;;2.77;0.63;;;12.10;99.90;;;;;;4979916;28;20430;-80
2023/01/08 12:36:17;;;;;;;2.83;1.20;;;11.90;99.90;;;;;;4980345;28;20411;-81
2023/01/08 12:38:59;;;;;;;2.50;0.70;;;11.90;99.90;;;;;;4997064;28;20399;-81
2023/01/08 12:41:25;;;;;;;2.70;1.50;;;11.90;99.90;;;;;;4980110;28;20410;-80
2023/01/08 12:44:04;;;;;;;0.68;0.57;;;11.90;99.90;;;;;;4979840;28;20474;-80
2023/01/08 12:46:36;;;;;;;2.53;1.70;;;11.80;99.90;;;;;;4979943;28;20191;-80
2023/01/08 12:49:05;;;;;;;0.70;0.60;;;11.70;99.90;;;;;;4979602;28;20187;-80
2023/01/08 12:51:53;;;;;;;1.63;0.60;;;11.70;99.90;;;;;;4997708;28;20451;-80
2023/01/08 12:54:48;;;;;;;1.23;0.80;;;11.70;99.90;;;;;;4971920;28;20782;-81
2023/01/08 12:57:42;;;;;;;1.40;0.80;;;12.00;99.90;;;;;;4996970;28;20550;-80
2023/01/08 13:00:20;;;;;;;0.87;0.60;;;12.30;99.90;;;;;;4996714;28;20254;-80
2023/01/08 13:03:01;;;;;;;0.67;0.60;;;12.50;99.90;;;;;;4979830;28;20434;-80